CheckWX is a tool to help pilots better visualize weather data.  It is not intended as a substitute for an official pre-flight weather briefing.

14:22:27 UTC

KAPS METAR
Port of South Louisiana Executive Regional Airport
Reserve, Louisiana, USA
Current

7 mins ago

KAPS 221415Z AUTO 10SM CLR 21/14 A3019 RMK AO2 T02110135
Observed
Apr-22 @ 14:15 UTC
Visibility
10 SM
Flight Rules
VFR
Cloud Levels
  • Clear skies
Temperature
21°C / 70°F
Dewpoint
14°C / 57°F
Humidity
64%
Altimeter
30.19" Hg
Pressure
1022.32 hPa
Previous

27 mins ago

KAPS 221355Z AUTO 10SM CLR 20/13 A3019 RMK AO2 T01980133
Observed
Apr-22 @ 13:55 UTC
Visibility
10 SM
Flight Rules
VFR
Cloud Levels
  • Clear skies
Temperature
20°C / 68°F
Dewpoint
13°C / 55°F
Humidity
64%
Altimeter
30.19" Hg
Pressure
1022.32 hPa
Previous

47 mins ago

KAPS 221335Z AUTO 15004KT 10SM CLR 19/13 A3019 RMK AO2 T01900132
Observed
Apr-22 @ 13:35 UTC
Wind
  • 150° at 4 KTS
Visibility
10 SM
Flight Rules
VFR
Cloud Levels
  • Clear skies
Temperature
19°C / 66°F
Dewpoint
13°C / 55°F
Humidity
68%
Altimeter
30.19" Hg
Pressure
1022.32 hPa